Littleton, CO (80127)

5:37 PM MDT on April 18, 2015 (GMT -0600)
Hunters Ridge | | Change Station
CLOSE
Current Station
Personal Weather Station
Location: Littleton, CO
Elevation: 7720 ft
Nearby Weather Stations

Elev 7720 ft 39.51 °N, 105.18 °W | Updated 4 minutes ago

Overcast
Overcast
33.6 °F
Feels Like 34 °F
N
3.0
Wind Variable Wind from NNW
Gusts 15.0 mph

Today
High -- | Low -- °F
--% Chance of Precip.
Yesterday
High -- | Low -- °F
Precip. -- in
6:19 AM 7:41 PM
New Moon, 0% visible
Pressure 29.83 in
Visibility 10.0 miles
Clouds Scattered Clouds 4500 ft
Scattered Clouds 7000 ft
Mostly Cloudy 11000 ft
Mostly Cloudy 20000 ft
Windchill 34 °F
Dew Point 31 °F
Humidity 91%
Rainfall 0.51 in
Snow Depth Not available.
UV 2 out of 12
Pollen 6.20 out of 12
Air Quality Not available.
Flu Activity Local Activity
METAR KAPA 182253Z 01013KT 10SM SCT045 SCT070 BKN110 BKN200 09/M01 A2986 RMK AO2 SLP102 OCNL LTGICCG DSNT SE CB DSNT SE MOV SE T00941006

More Conditions Fewer Conditions

Pressure 29.83 in
Visibility 10.0 miles
Clouds Scattered Clouds 4500 ft
Scattered Clouds 7000 ft
Mostly Cloudy 11000 ft
Mostly Cloudy 20000 ft
Windchill 34 °F
Dew Point 31 °F
Humidity 91%
Rainfall 0.51 in
Snow Depth Not available.
UV 2 out of 12
Pollen 6.20 out of 12
Air Quality Not available.
Flu Activity Local Activity
METAR KAPA 182253Z 01013KT 10SM SCT045 SCT070 BKN110 BKN200 09/M01 A2986 RMK AO2 SLP102 OCNL LTGICCG DSNT SE CB DSNT SE MOV SE T00941006

More Conditions Fewer Conditions

10-Day Weather Forecast

Almanac

Astronomy

Apr. 18, 2015 Rise Set
Actual Time
Civil Twilight
Nautical Twilight
Astronomical Twilight
Moon
Length of Visible Light
Length of Day
Tomorrow will be .
, % of the Moon is Illuminated

Today's Extremes

State Highs State Lows

Community

WunderPhotos

Upload Photos

1,814,576 photos uploaded!

WunderBlogs® & News

Nearby

Air Quality

  Air Quality AQ Index Pollutant
Not available.

Snow Depth

Station Depth Elevation

Earthquake Activity

City Distance Mag. Time & Date
Minimum magnitude displayed is 2.5.

Coastal Water Temperatures

Place Temperature

Stations

Nearby Weather Stations

Station Location Temp. Windchill Dew Point Humidity Wind Precip. Elev Updated Type